sensor_id;sensor_type;location;lat;lon;timestamp;pressure;altitude;pressure_sealevel;temperature;humidity
31121;BME280;17770;45.966;13.632;2023-04-24T00:00:56;99786.47;;;21.27;57.72
31121;BME280;17770;45.966;13.632;2023-04-24T00:03:23;99775.16;;;21.27;57.77
31121;BME280;17770;45.966;13.632;2023-04-24T00:05:49;99787.44;;;21.26;57.70
31121;BME280;17770;45.966;13.632;2023-04-24T00:08:15;99779.56;;;21.26;57.75
31121;BME280;17770;45.966;13.632;2023-04-24T00:10:41;99778.84;;;21.24;57.61
31121;BME280;17770;45.966;13.632;2023-04-24T00:13:07;99771.97;;;21.23;57.72
31121;BME280;17770;45.966;13.632;2023-04-24T00:15:33;99772.75;;;21.24;57.45
31121;BME280;17770;45.966;13.632;2023-04-24T00:17:58;99766.72;;;21.23;57.76
31121;BME280;17770;45.966;13.632;2023-04-24T00:20:27;99769.47;;;21.22;57.68
31121;BME280;17770;45.966;13.632;2023-04-24T00:22:53;99767.78;;;21.21;57.68
31121;BME280;17770;45.966;13.632;2023-04-24T00:25:19;99768.75;;;21.20;57.68
31121;BME280;17770;45.966;13.632;2023-04-24T00:27:45;99769.59;;;21.20;57.80
31121;BME280;17770;45.966;13.632;2023-04-24T00:30:11;99773.03;;;21.21;57.73
31121;BME280;17770;45.966;13.632;2023-04-24T00:32:37;99763.50;;;21.20;57.72
31121;BME280;17770;45.966;13.632;2023-04-24T00:35:03;99758.25;;;21.20;57.50
31121;BME280;17770;45.966;13.632;2023-04-24T00:37:29;99761.72;;;21.20;57.65
31121;BME280;17770;45.966;13.632;2023-04-24T00:39:55;99758.25;;;21.20;57.76
31121;BME280;17770;45.966;13.632;2023-04-24T00:42:21;99752.16;;;21.19;57.80
31121;BME280;17770;45.966;13.632;2023-04-24T00:44:47;99746.94;;;21.19;57.67
31121;BME280;17770;45.966;13.632;2023-04-24T00:47:13;99742.66;;;21.18;57.77
31121;BME280;17770;45.966;13.632;2023-04-24T00:49:40;99738.25;;;21.19;57.65
31121;BME280;17770;45.966;13.632;2023-04-24T00:52:05;99734.06;;;21.16;57.54
31121;BME280;17770;45.966;13.632;2023-04-24T00:54:34;99735.72;;;21.17;57.60
31121;BME280;17770;45.966;13.632;2023-04-24T00:57:01;99723.59;;;21.16;57.23
31121;BME280;17770;45.966;13.632;2023-04-24T00:59:28;99716.56;;;21.17;57.78
31121;BME280;17770;45.966;13.632;2023-04-24T01:01:54;99718.34;;;21.16;57.43
31121;BME280;17770;45.966;13.632;2023-04-24T01:04:20;99711.44;;;21.15;57.73
31121;BME280;17770;45.966;13.632;2023-04-24T01:06:47;99699.25;;;21.14;57.58
31121;BME280;17770;45.966;13.632;2023-04-24T01:09:14;99705.34;;;21.15;57.58
31121;BME280;17770;45.966;13.632;2023-04-24T01:11:41;99714.19;;;21.14;57.70
31121;BME280;17770;45.966;13.632;2023-04-24T01:14:07;99719.53;;;21.12;57.65
31121;BME280;17770;45.966;13.632;2023-04-24T01:16:33;99726.59;;;21.12;57.55
31121;BME280;17770;45.966;13.632;2023-04-24T01:19:00;99731.84;;;21.12;57.53
31121;BME280;17770;45.966;13.632;2023-04-24T01:21:26;99729.34;;;21.10;57.57
31121;BME280;17770;45.966;13.632;2023-04-24T01:23:56;99719.78;;;21.09;57.68
31121;BME280;17770;45.966;13.632;2023-04-24T01:26:22;99721.59;;;21.09;57.69
31121;BME280;17770;45.966;13.632;2023-04-24T01:28:48;99718.16;;;21.08;57.22
31121;BME280;17770;45.966;13.632;2023-04-24T01:31:14;99715.38;;;21.10;57.74
31121;BME280;17770;45.966;13.632;2023-04-24T01:33:41;99706.81;;;21.08;57.85
31121;BME280;17770;45.966;13.632;2023-04-24T01:36:08;99711.25;;;21.07;57.60
31121;BME280;17770;45.966;13.632;2023-04-24T01:38:35;99713.03;;;21.07;57.56
31121;BME280;17770;45.966;13.632;2023-04-24T01:41:01;99703.38;;;21.07;57.61
31121;BME280;17770;45.966;13.632;2023-04-24T01:43:26;99706.09;;;21.06;57.62
31121;BME280;17770;45.966;13.632;2023-04-24T01:45:52;99701.69;;;21.06;57.86
31121;BME280;17770;45.966;13.632;2023-04-24T01:48:18;99698.38;;;21.04;57.46
31121;BME280;17770;45.966;13.632;2023-04-24T01:50:45;99690.50;;;21.04;57.52
31121;BME280;17770;45.966;13.632;2023-04-24T01:53:11;99700.06;;;21.05;57.61
31121;BME280;17770;45.966;13.632;2023-04-24T01:55:37;99689.56;;;21.05;57.52
31121;BME280;17770;45.966;13.632;2023-04-24T01:58:04;99693.13;;;21.04;57.64
31121;BME280;17770;45.966;13.632;2023-04-24T02:00:30;99681.81;;;21.04;57.42
31121;BME280;17770;45.966;13.632;2023-04-24T02:02:56;99676.81;;;21.01;57.66
31121;BME280;17770;45.966;13.632;2023-04-24T02:05:24;99680.28;;;21.01;57.57
31121;BME280;17770;45.966;13.632;2023-04-24T02:07:50;99678.63;;;21.00;57.67
31121;BME280;17770;45.966;13.632;2023-04-24T02:10:16;99672.41;;;21.01;57.65
31121;BME280;17770;45.966;13.632;2023-04-24T02:12:42;99674.19;;;21.01;57.71
31121;BME280;17770;45.966;13.632;2023-04-24T02:15:08;99673.38;;;21.00;57.67
31121;BME280;17770;45.966;13.632;2023-04-24T02:17:36;99668.13;;;21.00;57.56
31121;BME280;17770;45.966;13.632;2023-04-24T02:20:04;99670.03;;;20.98;57.67
31121;BME280;17770;45.966;13.632;2023-04-24T02:22:31;99662.19;;;20.98;57.67
31121;BME280;17770;45.966;13.632;2023-04-24T02:24:56;99662.19;;;20.98;57.59
31121;BME280;17770;45.966;13.632;2023-04-24T02:27:22;99674.44;;;20.98;57.59
31121;BME280;17770;45.966;13.632;2023-04-24T02:29:48;99671.00;;;20.97;57.73
31121;BME280;17770;45.966;13.632;2023-04-24T02:32:14;99667.53;;;20.97;57.86
31121;BME280;17770;45.966;13.632;2023-04-24T02:34:42;99668.50;;;20.96;57.54
31121;BME280;17770;45.966;13.632;2023-04-24T02:37:08;99678.00;;;20.97;57.70
31121;BME280;17770;45.966;13.632;2023-04-24T02:39:35;99669.31;;;20.96;57.66
31121;BME280;17770;45.966;13.632;2023-04-24T02:42:01;99667.66;;;20.95;57.49
31121;BME280;17770;45.966;13.632;2023-04-24T02:44:27;99671.13;;;20.96;57.51
31121;BME280;17770;45.966;13.632;2023-04-24T02:46:53;99673.84;;;20.94;57.67
31121;BME280;17770;45.966;13.632;2023-04-24T02:49:19;99678.13;;;20.95;57.42
31121;BME280;17770;45.966;13.632;2023-04-24T02:51:45;99665.16;;;20.94;57.74
31121;BME280;17770;45.966;13.632;2023-04-24T02:54:11;99660.84;;;20.93;57.68
31121;BME280;17770;45.966;13.632;2023-04-24T02:56:37;99654.81;;;20.92;57.68
31121;BME280;17770;45.966;13.632;2023-04-24T02:59:04;99648.72;;;20.92;57.49
31121;BME280;17770;45.966;13.632;2023-04-24T03:01:30;99639.88;;;20.93;57.47
31121;BME280;17770;45.966;13.632;2023-04-24T03:03:56;99645.25;;;20.91;57.25
31121;BME280;17770;45.966;13.632;2023-04-24T03:06:22;99642.75;;;20.90;57.66
31121;BME280;17770;45.966;13.632;2023-04-24T03:08:48;99640.97;;;20.90;57.72
31121;BME280;17770;45.966;13.632;2023-04-24T03:11:14;99643.47;;;20.92;57.52
31121;BME280;17770;45.966;13.632;2023-04-24T03:13:41;99638.38;;;20.90;57.36
31121;BME280;17770;45.966;13.632;2023-04-24T03:16:07;99635.75;;;20.90;57.40
31121;BME280;17770;45.966;13.632;2023-04-24T03:18:32;99628.81;;;20.89;57.17
31121;BME280;17770;45.966;13.632;2023-04-24T03:20:58;99627.16;;;20.88;57.74
31121;BME280;17770;45.966;13.632;2023-04-24T03:23:25;99612.41;;;20.87;57.42
31121;BME280;17770;45.966;13.632;2023-04-24T03:25:51;99614.91;;;20.89;57.71
31121;BME280;17770;45.966;13.632;2023-04-24T03:28:19;99610.72;;;20.86;57.48
31121;BME280;17770;45.966;13.632;2023-04-24T03:30:51;99612.53;;;20.86;57.70
31121;BME280;17770;45.966;13.632;2023-04-24T03:33:19;99607.31;;;20.86;57.50
31121;BME280;17770;45.966;13.632;2023-04-24T03:35:54;99605.63;;;20.85;57.66
31121;BME280;17770;45.966;13.632;2023-04-24T03:38:21;99605.50;;;20.86;57.41
31121;BME280;17770;45.966;13.632;2023-04-24T03:40:53;99613.34;;;20.86;57.68
31121;BME280;17770;45.966;13.632;2023-04-24T03:43:33;99602.16;;;20.84;57.71
31121;BME280;17770;45.966;13.632;2023-04-24T03:46:01;99602.16;;;20.84;57.27
31121;BME280;17770;45.966;13.632;2023-04-24T03:48:28;99604.78;;;20.84;57.33
31121;BME280;17770;45.966;13.632;2023-04-24T03:50:54;99592.66;;;20.83;57.59
31121;BME280;17770;45.966;13.632;2023-04-24T03:53:20;99598.72;;;20.84;57.38
31121;BME280;17770;45.966;13.632;2023-04-24T03:55:46;99599.66;;;20.83;57.59
31121;BME280;17770;45.966;13.632;2023-04-24T03:58:14;99604.09;;;20.82;57.35
31121;BME280;17770;45.966;13.632;2023-04-24T04:00:40;99597.03;;;20.83;57.32
31121;BME280;17770;45.966;13.632;2023-04-24T04:03:38;99605.88;;;20.82;57.47
31121;BME280;17770;45.966;13.632;2023-04-24T04:06:04;99607.66;;;20.81;57.63
31121;BME280;17770;45.966;13.632;2023-04-24T04:08:30;99599.00;;;20.81;57.64
31121;BME280;17770;45.966;13.632;2023-04-24T04:10:57;99600.63;;;20.82;57.61
31121;BME280;17770;45.966;13.632;2023-04-24T04:13:23;99583.41;;;20.79;57.61
31121;BME280;17770;45.966;13.632;2023-04-24T04:15:48;99582.41;;;20.80;57.40
31121;BME280;17770;45.966;13.632;2023-04-24T04:18:14;99578.97;;;20.80;57.51
31121;BME280;17770;45.966;13.632;2023-04-24T04:20:41;99580.88;;;20.77;57.51
31121;BME280;17770;45.966;13.632;2023-04-24T04:23:08;99578.16;;;20.79;57.36
31121;BME280;17770;45.966;13.632;2023-04-24T04:25:43;99587.66;;;20.80;57.28
31121;BME280;17770;45.966;13.632;2023-04-24T04:28:10;99581.72;;;20.78;57.28
31121;BME280;17770;45.966;13.632;2023-04-24T04:30:36;99587.94;;;20.77;57.66
31121;BME280;17770;45.966;13.632;2023-04-24T04:33:04;99586.13;;;20.77;57.57
31121;BME280;17770;45.966;13.632;2023-04-24T04:35:31;99587.09;;;20.77;57.46
31121;BME280;17770;45.966;13.632;2023-04-24T04:37:57;99592.31;;;20.77;57.34
31121;BME280;17770;45.966;13.632;2023-04-24T04:40:36;99594.09;;;20.76;57.75
31121;BME280;17770;45.966;13.632;2023-04-24T04:43:04;99593.31;;;20.76;57.70
31121;BME280;17770;45.966;13.632;2023-04-24T04:45:38;99595.09;;;20.75;57.57
31121;BME280;17770;45.966;13.632;2023-04-24T04:48:23;99589.00;;;20.74;57.56
31121;BME280;17770;45.966;13.632;2023-04-24T04:50:49;99582.94;;;20.74;57.31
31121;BME280;17770;45.966;13.632;2023-04-24T04:53:16;99587.34;;;20.73;57.50
31121;BME280;17770;45.966;13.632;2023-04-24T04:55:42;99579.63;;;20.72;57.50
31121;BME280;17770;45.966;13.632;2023-04-24T04:58:14;99592.72;;;20.72;57.54
31121;BME280;17770;45.966;13.632;2023-04-24T05:00:40;99590.91;;;20.72;57.35
31121;BME280;17770;45.966;13.632;2023-04-24T05:03:19;99595.34;;;20.72;57.43
31121;BME280;17770;45.966;13.632;2023-04-24T05:05:46;99593.66;;;20.71;57.21
31121;BME280;17770;45.966;13.632;2023-04-24T05:08:14;99593.66;;;20.71;57.41
31121;BME280;17770;45.966;13.632;2023-04-24T05:10:41;99590.22;;;20.70;57.32
31121;BME280;17770;45.966;13.632;2023-04-24T05:13:07;99592.00;;;20.70;57.26
31121;BME280;17770;45.966;13.632;2023-04-24T05:15:33;99592.84;;;20.70;57.51
31121;BME280;17770;45.966;13.632;2023-04-24T05:18:00;99596.53;;;20.68;57.42
31121;BME280;17770;45.966;13.632;2023-04-24T05:20:27;99592.28;;;20.67;57.25
31121;BME280;17770;45.966;13.632;2023-04-24T05:22:54;99595.72;;;20.67;57.26
31121;BME280;17770;45.966;13.632;2023-04-24T05:25:21;99586.06;;;20.68;57.60
31121;BME280;17770;45.966;13.632;2023-04-24T05:27:53;99587.88;;;20.67;57.70
31121;BME280;17770;45.966;13.632;2023-04-24T05:30:19;99590.59;;;20.66;57.45
31121;BME280;17770;45.966;13.632;2023-04-24T05:32:45;99601.06;;;20.66;57.49
31121;BME280;17770;45.966;13.632;2023-04-24T05:35:12;99602.03;;;20.65;57.32
31121;BME280;17770;45.966;13.632;2023-04-24T05:37:38;99602.03;;;20.65;57.42
31121;BME280;17770;45.966;13.632;2023-04-24T05:40:05;99598.72;;;20.63;57.39
31121;BME280;17770;45.966;13.632;2023-04-24T05:42:31;99607.41;;;20.63;57.81
31121;BME280;17770;45.966;13.632;2023-04-24T05:44:57;99611.00;;;20.62;57.45
31121;BME280;17770;45.966;13.632;2023-04-24T05:47:23;99609.19;;;20.63;57.34
31121;BME280;17770;45.966;13.632;2023-04-24T05:49:51;99601.59;;;20.60;57.49
31121;BME280;17770;45.966;13.632;2023-04-24T05:52:17;99605.88;;;20.61;57.76
31121;BME280;17770;45.966;13.632;2023-04-24T05:54:43;99601.59;;;20.60;57.56
31121;BME280;17770;45.966;13.632;2023-04-24T05:57:11;99602.56;;;20.59;57.59
31121;BME280;17770;45.966;13.632;2023-04-24T05:59:50;99609.59;;;20.58;57.38
31121;BME280;17770;45.966;13.632;2023-04-24T06:02:17;99610.56;;;20.57;57.50
31121;BME280;17770;45.966;13.632;2023-04-24T06:04:44;99610.69;;;20.56;57.72
31121;BME280;17770;45.966;13.632;2023-04-24T06:07:10;99608.88;;;20.56;57.54
31121;BME280;17770;45.966;13.632;2023-04-24T06:09:36;99610.69;;;20.56;57.74
31121;BME280;17770;45.966;13.632;2023-04-24T06:12:02;99618.53;;;20.56;57.90
31121;BME280;17770;45.966;13.632;2023-04-24T06:14:41;99613.41;;;20.54;57.72
31121;BME280;17770;45.966;13.632;2023-04-24T06:17:20;99616.03;;;20.54;57.51
31121;BME280;17770;45.966;13.632;2023-04-24T06:19:46;99620.44;;;20.54;57.60
31121;BME280;17770;45.966;13.632;2023-04-24T06:22:13;99623.88;;;20.54;57.86
31121;BME280;17770;45.966;13.632;2023-04-24T06:24:41;99621.25;;;20.54;57.73
31121;BME280;17770;45.966;13.632;2023-04-24T06:27:07;99623.19;;;20.52;57.64
31121;BME280;17770;45.966;13.632;2023-04-24T06:29:33;99617.97;;;20.52;57.80
31121;BME280;17770;45.966;13.632;2023-04-24T06:31:59;99611.88;;;20.52;57.84
31121;BME280;17770;45.966;13.632;2023-04-24T06:34:25;99611.88;;;20.52;57.59
31121;BME280;17770;45.966;13.632;2023-04-24T06:36:51;99599.75;;;20.51;58.07
31121;BME280;17770;45.966;13.632;2023-04-24T06:39:17;99605.78;;;20.51;57.74
31121;BME280;17770;45.966;13.632;2023-04-24T06:41:42;99598.91;;;20.50;57.75
31121;BME280;17770;45.966;13.632;2023-04-24T06:44:17;99616.53;;;20.48;57.92
31121;BME280;17770;45.966;13.632;2023-04-24T06:46:43;99604.28;;;20.49;58.05
31121;BME280;17770;45.966;13.632;2023-04-24T06:49:09;99609.66;;;20.47;58.03
31121;BME280;17770;45.966;13.632;2023-04-24T06:51:35;99606.19;;;20.47;57.94
31121;BME280;17770;45.966;13.632;2023-04-24T06:54:01;99607.03;;;20.47;58.11
31121;BME280;17770;45.966;13.632;2023-04-24T06:56:27;99603.56;;;20.47;58.17
31121;BME280;17770;45.966;13.632;2023-04-24T06:58:54;99612.13;;;20.49;58.32
31121;BME280;17770;45.966;13.632;2023-04-24T07:01:20;99601.66;;;20.49;57.78
31121;BME280;17770;45.966;13.632;2023-04-24T07:03:46;99599.16;;;20.47;58.01
31121;BME280;17770;45.966;13.632;2023-04-24T07:06:12;99600.09;;;20.46;57.92
31121;BME280;17770;45.966;13.632;2023-04-24T07:08:38;99605.34;;;20.46;57.96
31121;BME280;17770;45.966;13.632;2023-04-24T07:11:04;99594.06;;;20.46;58.14
31121;BME280;17770;45.966;13.632;2023-04-24T07:13:30;99601.06;;;20.45;58.22
31121;BME280;17770;45.966;13.632;2023-04-24T07:15:56;99597.63;;;20.45;58.30
31121;BME280;17770;45.966;13.632;2023-04-24T07:18:21;99595.84;;;20.45;58.22
31121;BME280;17770;45.966;13.632;2023-04-24T07:20:47;99596.78;;;20.44;58.23
31121;BME280;17770;45.966;13.632;2023-04-24T07:23:15;99591.53;;;20.44;58.16
31121;BME280;17770;45.966;13.632;2023-04-24T07:25:41;99596.91;;;20.43;58.09
31121;BME280;17770;45.966;13.632;2023-04-24T07:28:07;99602.13;;;20.43;58.07
31121;BME280;17770;45.966;13.632;2023-04-24T07:30:33;99602.00;;;20.44;57.99
31121;BME280;17770;45.966;13.632;2023-04-24T07:32:59;99597.75;;;20.43;57.94
31121;BME280;17770;45.966;13.632;2023-04-24T07:35:26;99598.59;;;20.44;58.16
31121;BME280;17770;45.966;13.632;2023-04-24T07:37:55;99604.63;;;20.44;57.87
31121;BME280;17770;45.966;13.632;2023-04-24T07:40:21;99597.63;;;20.45;58.00
31121;BME280;17770;45.966;13.632;2023-04-24T07:42:47;99597.75;;;20.43;57.90
31121;BME280;17770;45.966;13.632;2023-04-24T07:45:14;99591.53;;;20.44;57.77
31121;BME280;17770;45.966;13.632;2023-04-24T07:47:43;99582.88;;;20.44;57.85
31121;BME280;17770;45.966;13.632;2023-04-24T07:50:11;99591.66;;;20.43;57.50
31121;BME280;17770;45.966;13.632;2023-04-24T07:52:37;99592.50;;;20.43;57.60
31121;BME280;17770;45.966;13.632;2023-04-24T07:55:03;99581.19;;;20.43;57.95
31121;BME280;17770;45.966;13.632;2023-04-24T07:57:29;99582.16;;;20.42;57.55
31121;BME280;17770;45.966;13.632;2023-04-24T07:59:55;99588.34;;;20.41;57.85
31121;BME280;17770;45.966;13.632;2023-04-24T08:02:21;99587.38;;;20.42;57.99
31121;BME280;17770;45.966;13.632;2023-04-24T08:04:54;99582.16;;;20.42;57.56
31121;BME280;17770;45.966;13.632;2023-04-24T08:07:20;99576.91;;;20.42;57.61
31121;BME280;17770;45.966;13.632;2023-04-24T08:09:47;99574.44;;;20.40;57.86
31121;BME280;17770;45.966;13.632;2023-04-24T08:12:12;99576.19;;;20.40;57.61
31121;BME280;17770;45.966;13.632;2023-04-24T08:14:38;99581.44;;;20.40;58.10
31121;BME280;17770;45.966;13.632;2023-04-24T08:17:04;99582.53;;;20.37;58.13
31121;BME280;17770;45.966;13.632;2023-04-24T08:19:30;99576.47;;;20.37;58.13
31121;BME280;17770;45.966;13.632;2023-04-24T08:21:56;99577.44;;;20.36;58.13
31121;BME280;17770;45.966;13.632;2023-04-24T08:24:22;99569.56;;;20.36;58.09
31121;BME280;17770;45.966;13.632;2023-04-24T08:26:48;99573.13;;;20.35;58.14
31121;BME280;17770;45.966;13.632;2023-04-24T08:29:16;99563.38;;;20.37;58.10
31121;BME280;17770;45.966;13.632;2023-04-24T08:31:41;99567.75;;;20.36;57.94
31121;BME280;17770;45.966;13.632;2023-04-24T08:34:08;99569.44;;;20.37;58.11
31121;BME280;17770;45.966;13.632;2023-04-24T08:36:34;99579.09;;;20.37;58.27
31121;BME280;17770;45.966;13.632;2023-04-24T08:39:00;99566.09;;;20.35;58.24
31121;BME280;17770;45.966;13.632;2023-04-24T08:41:26;99567.88;;;20.35;58.18
31121;BME280;17770;45.966;13.632;2023-04-24T08:43:52;99573.13;;;20.35;58.10
31121;BME280;17770;45.966;13.632;2023-04-24T08:46:19;99572.31;;;20.34;57.91
31121;BME280;17770;45.966;13.632;2023-04-24T08:48:45;99572.41;;;20.33;58.21
31121;BME280;17770;45.966;13.632;2023-04-24T08:51:11;99580.28;;;20.33;58.04
31121;BME280;17770;45.966;13.632;2023-04-24T08:53:37;99580.19;;;20.34;58.37
31121;BME280;17770;45.966;13.632;2023-04-24T08:56:03;99577.66;;;20.33;57.96
31121;BME280;17770;45.966;13.632;2023-04-24T08:58:29;99579.47;;;20.32;58.02
31121;BME280;17770;45.966;13.632;2023-04-24T09:00:56;99583.88;;;20.32;57.91
31121;BME280;17770;45.966;13.632;2023-04-24T09:03:22;99586.47;;;20.32;58.22
31121;BME280;17770;45.966;13.632;2023-04-24T09:05:48;99590.88;;;20.31;58.06
31121;BME280;17770;45.966;13.632;2023-04-24T09:08:16;99589.22;;;20.30;57.57
31121;BME280;17770;45.966;13.632;2023-04-24T09:10:43;99587.44;;;20.31;58.51
31121;BME280;17770;45.966;13.632;2023-04-24T09:13:09;99590.06;;;20.31;58.13
31121;BME280;17770;45.966;13.632;2023-04-24T09:15:38;99593.63;;;20.30;58.47
31121;BME280;17770;45.966;13.632;2023-04-24T09:18:04;99588.50;;;20.28;58.08
31121;BME280;17770;45.966;13.632;2023-04-24T09:20:31;99583.16;;;20.30;58.30
31121;BME280;17770;45.966;13.632;2023-04-24T09:22:57;99587.56;;;20.29;58.35
31121;BME280;17770;45.966;13.632;2023-04-24T09:25:32;99586.75;;;20.29;58.16
31121;BME280;17770;45.966;13.632;2023-04-24T09:28:02;99577.09;;;20.29;58.16
31121;BME280;17770;45.966;13.632;2023-04-24T09:30:28;99574.47;;;20.29;58.37
31121;BME280;17770;45.966;13.632;2023-04-24T09:33:10;99572.69;;;20.30;58.36
31121;BME280;17770;45.966;13.632;2023-04-24T09:35:39;99573.63;;;20.29;58.23
31121;BME280;17770;45.966;13.632;2023-04-24T09:38:05;99567.44;;;20.30;58.35
31121;BME280;17770;45.966;13.632;2023-04-24T09:40:31;99570.06;;;20.30;58.11
31121;BME280;17770;45.966;13.632;2023-04-24T09:42:59;99564.81;;;20.30;58.42
31121;BME280;17770;45.966;13.632;2023-04-24T09:45:28;99573.50;;;20.30;58.04
31121;BME280;17770;45.966;13.632;2023-04-24T09:47:54;99570.06;;;20.30;58.27
31121;BME280;17770;45.966;13.632;2023-04-24T09:50:21;99563.88;;;20.31;58.27
31121;BME280;17770;45.966;13.632;2023-04-24T09:52:55;99567.56;;;20.28;57.97
31121;BME280;17770;45.966;13.632;2023-04-24T09:55:21;99563.16;;;20.29;58.12
31121;BME280;17770;45.966;13.632;2023-04-24T10:00:23;99557.22;;;20.27;58.24
31121;BME280;17770;45.966;13.632;2023-04-24T10:02:49;99551.97;;;20.27;58.14
31121;BME280;17770;45.966;13.632;2023-04-24T10:05:15;99542.47;;;20.26;58.36
31121;BME280;17770;45.966;13.632;2023-04-24T10:07:41;99544.13;;;20.27;58.48
31121;BME280;17770;45.966;13.632;2023-04-24T10:10:08;99536.25;;;20.27;58.36
31121;BME280;17770;45.966;13.632;2023-04-24T10:12:34;99544.13;;;20.27;58.50
31121;BME280;17770;45.966;13.632;2023-04-24T10:15:00;99543.28;;;20.26;58.45
31121;BME280;17770;45.966;13.632;2023-04-24T10:17:27;99549.34;;;20.27;58.19
31121;BME280;17770;45.966;13.632;2023-04-24T10:19:54;99541.50;;;20.27;58.51
31121;BME280;17770;45.966;13.632;2023-04-24T10:22:20;99546.75;;;20.27;58.41
31121;BME280;17770;45.966;13.632;2023-04-24T10:24:47;99537.25;;;20.26;58.36
31121;BME280;17770;45.966;13.632;2023-04-24T10:27:13;99543.28;;;20.26;58.45
31121;BME280;17770;45.966;13.632;2023-04-24T10:29:40;99544.25;;;20.25;58.12
31121;BME280;17770;45.966;13.632;2023-04-24T10:32:07;99546.88;;;20.25;58.53
31121;BME280;17770;45.966;13.632;2023-04-24T10:34:33;99547.72;;;20.26;58.53
31121;BME280;17770;45.966;13.632;2023-04-24T10:36:58;99550.34;;;20.26;58.19
31121;BME280;17770;45.966;13.632;2023-04-24T10:39:24;99551.25;;;20.25;58.47
31121;BME280;17770;45.966;13.632;2023-04-24T10:41:50;99550.34;;;20.26;58.23
31121;BME280;17770;45.966;13.632;2023-04-24T10:44:16;99551.25;;;20.25;58.31
31121;BME280;17770;45.966;13.632;2023-04-24T10:46:43;99557.34;;;20.25;58.57
31121;BME280;17770;45.966;13.632;2023-04-24T10:49:09;99555.69;;;20.24;58.29
31121;BME280;17770;45.966;13.632;2023-04-24T10:51:50;99558.19;;;20.26;58.34
31121;BME280;17770;45.966;13.632;2023-04-24T10:56:53;99552.25;;;20.24;58.83
31121;BME280;17770;45.966;13.632;2023-04-24T10:59:39;99568.78;;;20.24;58.58
31121;BME280;17770;45.966;13.632;2023-04-24T11:02:06;99568.78;;;20.24;58.51
31121;BME280;17770;45.966;13.632;2023-04-24T11:04:32;99570.56;;;20.24;58.79
31121;BME280;17770;45.966;13.632;2023-04-24T11:06:58;99569.59;;;20.25;58.79
31121;BME280;17770;45.966;13.632;2023-04-24T11:09:28;99571.41;;;20.24;58.71
31121;BME280;17770;45.966;13.632;2023-04-24T11:12:29;99568.78;;;20.24;58.82
31121;BME280;17770;45.966;13.632;2023-04-24T11:17:30;99571.53;;;20.23;58.84
31121;BME280;17770;45.966;13.632;2023-04-24T11:20:10;99573.31;;;20.22;59.04
31121;BME280;17770;45.966;13.632;2023-04-24T11:22:37;99568.91;;;20.23;58.87
31121;BME280;17770;45.966;13.632;2023-04-24T11:25:03;99570.56;;;20.24;58.96
31121;BME280;17770;45.966;13.632;2023-04-24T11:27:32;99574.16;;;20.23;59.07
31121;BME280;17770;45.966;13.632;2023-04-24T11:30:02;99570.69;;;20.22;58.79
31121;BME280;17770;45.966;13.632;2023-04-24T11:37:40;99582.09;;;20.21;58.81
31121;BME280;17770;45.966;13.632;2023-04-24T11:40:07;99580.34;;;20.22;59.00
31121;BME280;17770;45.966;13.632;2023-04-24T11:42:37;99570.69;;;20.22;58.63
31121;BME280;17770;45.966;13.632;2023-04-24T11:45:07;99570.69;;;20.22;58.65
31121;BME280;17770;45.966;13.632;2023-04-24T11:47:33;99568.06;;;20.22;58.67
31121;BME280;17770;45.966;13.632;2023-04-24T11:49:59;99568.91;;;20.23;58.19
31121;BME280;17770;45.966;13.632;2023-04-24T11:52:26;99563.69;;;20.23;58.14
31121;BME280;17770;45.966;13.632;2023-04-24T11:54:52;99566.31;;;20.23;58.43
31121;BME280;17770;45.966;13.632;2023-04-24T11:57:22;99564.50;;;20.23;58.29
31121;BME280;17770;45.966;13.632;2023-04-24T11:59:48;99561.06;;;20.23;58.25
31121;BME280;17770;45.966;13.632;2023-04-24T12:02:21;99563.69;;;20.23;57.99
31121;BME280;17770;45.966;13.632;2023-04-24T12:04:47;99563.69;;;20.23;57.93
31121;BME280;17770;45.966;13.632;2023-04-24T12:07:13;99555.81;;;20.23;58.08
31121;BME280;17770;45.966;13.632;2023-04-24T12:09:48;99551.53;;;20.22;58.02
31121;BME280;17770;45.966;13.632;2023-04-24T12:12:17;99550.69;;;20.21;58.06
31121;BME280;17770;45.966;13.632;2023-04-24T12:17:09;99549.75;;;20.22;58.12
31121;BME280;17770;45.966;13.632;2023-04-24T12:19:35;99547.97;;;20.23;58.20
31121;BME280;17770;45.966;13.632;2023-04-24T12:22:01;99541.06;;;20.22;58.17
31121;BME280;17770;45.966;13.632;2023-04-24T12:24:27;99547.13;;;20.22;58.27
31121;BME280;17770;45.966;13.632;2023-04-24T12:26:53;99542.03;;;20.21;58.31
31121;BME280;17770;45.966;13.632;2023-04-24T12:29:20;99544.63;;;20.21;58.06
31121;BME280;17770;45.966;13.632;2023-04-24T12:31:46;99549.88;;;20.21;57.82
31121;BME280;17770;45.966;13.632;2023-04-24T12:34:22;99554.28;;;20.20;57.95
31121;BME280;17770;45.966;13.632;2023-04-24T12:36:49;99550.00;;;20.19;57.81
31121;BME280;17770;45.966;13.632;2023-04-24T12:39:18;99555.13;;;20.21;57.82
31121;BME280;17770;45.966;13.632;2023-04-24T12:41:54;99555.13;;;20.21;58.09
31121;BME280;17770;45.966;13.632;2023-04-24T12:44:28;99562.97;;;20.21;57.82
31121;BME280;17770;45.966;13.632;2023-04-24T12:46:54;99557.03;;;20.19;57.82
31121;BME280;17770;45.966;13.632;2023-04-24T12:49:20;99555.25;;;20.19;57.67
31121;BME280;17770;45.966;13.632;2023-04-24T12:51:46;99546.53;;;20.19;58.13
31121;BME280;17770;45.966;13.632;2023-04-24T12:54:12;99551.78;;;20.19;57.61
31121;BME280;17770;45.966;13.632;2023-04-24T12:56:37;99550.81;;;20.20;57.76
31121;BME280;17770;45.966;13.632;2023-04-24T12:59:04;99550.00;;;20.19;57.75
31121;BME280;17770;45.966;13.632;2023-04-24T13:01:30;99548.31;;;20.18;57.90
31121;BME280;17770;45.966;13.632;2023-04-24T13:03:56;99546.53;;;20.19;57.91
31121;BME280;17770;45.966;13.632;2023-04-24T13:06:22;99555.38;;;20.18;57.58